sensor_id;sensor_type;location;lat;lon;timestamp;P1;durP1;ratioP1;P2;durP2;ratioP2
73869;SDS011;64924;42.140;24.762;2024-02-21T00:01:21;62.83;;;32.00;;
73869;SDS011;64924;42.140;24.762;2024-02-21T00:03:47;56.38;;;32.38;;
73869;SDS011;64924;42.140;24.762;2024-02-21T00:06:13;61.55;;;36.35;;
73869;SDS011;64924;42.140;24.762;2024-02-21T00:08:39;60.60;;;34.65;;
73869;SDS011;64924;42.140;24.762;2024-02-21T00:11:04;58.20;;;34.38;;
73869;SDS011;64924;42.140;24.762;2024-02-21T00:13:30;59.42;;;34.20;;
73869;SDS011;64924;42.140;24.762;2024-02-21T00:15:55;56.90;;;33.75;;
73869;SDS011;64924;42.140;24.762;2024-02-21T00:18:21;58.80;;;34.60;;
73869;SDS011;64924;42.140;24.762;2024-02-21T00:20:46;59.67;;;35.28;;
73869;SDS011;64924;42.140;24.762;2024-02-21T00:23:12;58.97;;;34.38;;
73869;SDS011;64924;42.140;24.762;2024-02-21T00:25:38;60.72;;;34.67;;
73869;SDS011;64924;42.140;24.762;2024-02-21T00:28:03;65.10;;;36.33;;
73869;SDS011;64924;42.140;24.762;2024-02-21T00:30:31;64.00;;;37.20;;
73869;SDS011;64924;42.140;24.762;2024-02-21T00:32:56;64.35;;;36.80;;
73869;SDS011;64924;42.140;24.762;2024-02-21T00:35:22;64.15;;;37.35;;
73869;SDS011;64924;42.140;24.762;2024-02-21T00:37:47;64.78;;;37.95;;
73869;SDS011;64924;42.140;24.762;2024-02-21T00:40:13;65.68;;;36.92;;
73869;SDS011;64924;42.140;24.762;2024-02-21T00:42:46;60.65;;;36.40;;
73869;SDS011;64924;42.140;24.762;2024-02-21T00:45:12;60.97;;;35.42;;
73869;SDS011;64924;42.140;24.762;2024-02-21T00:47:37;61.85;;;37.40;;
73869;SDS011;64924;42.140;24.762;2024-02-21T00:50:03;61.25;;;36.80;;
73869;SDS011;64924;42.140;24.762;2024-02-21T00:52:29;64.18;;;37.63;;
73869;SDS011;64924;42.140;24.762;2024-02-21T00:54:54;65.55;;;36.58;;
73869;SDS011;64924;42.140;24.762;2024-02-21T00:57:20;63.28;;;35.13;;
73869;SDS011;64924;42.140;24.762;2024-02-21T00:59:45;64.82;;;36.60;;
73869;SDS011;64924;42.140;24.762;2024-02-21T01:02:11;64.97;;;37.60;;
73869;SDS011;64924;42.140;24.762;2024-02-21T01:04:36;68.00;;;36.72;;
73869;SDS011;64924;42.140;24.762;2024-02-21T01:07:02;65.47;;;38.45;;
73869;SDS011;64924;42.140;24.762;2024-02-21T01:09:27;65.40;;;37.35;;
73869;SDS011;64924;42.140;24.762;2024-02-21T01:11:53;66.82;;;36.10;;
73869;SDS011;64924;42.140;24.762;2024-02-21T01:14:18;63.08;;;37.42;;
73869;SDS011;64924;42.140;24.762;2024-02-21T01:16:44;62.47;;;37.15;;
73869;SDS011;64924;42.140;24.762;2024-02-21T01:19:09;63.65;;;38.10;;
73869;SDS011;64924;42.140;24.762;2024-02-21T01:21:35;68.90;;;38.72;;
73869;SDS011;64924;42.140;24.762;2024-02-21T01:24:00;68.38;;;39.17;;
73869;SDS011;64924;42.140;24.762;2024-02-21T01:26:26;61.28;;;38.22;;
73869;SDS011;64924;42.140;24.762;2024-02-21T01:28:51;67.00;;;39.28;;
73869;SDS011;64924;42.140;24.762;2024-02-21T01:31:17;67.72;;;39.45;;
73869;SDS011;64924;42.140;24.762;2024-02-21T01:33:42;69.13;;;39.25;;
73869;SDS011;64924;42.140;24.762;2024-02-21T01:36:08;70.40;;;38.95;;
73869;SDS011;64924;42.140;24.762;2024-02-21T01:38:34;71.03;;;39.13;;
73869;SDS011;64924;42.140;24.762;2024-02-21T01:41:00;64.75;;;36.40;;
73869;SDS011;64924;42.140;24.762;2024-02-21T01:43:25;64.82;;;36.80;;
73869;SDS011;64924;42.140;24.762;2024-02-21T01:45:57;70.47;;;37.95;;
73869;SDS011;64924;42.140;24.762;2024-02-21T01:48:23;68.30;;;39.28;;
73869;SDS011;64924;42.140;24.762;2024-02-21T01:50:49;66.15;;;39.53;;
73869;SDS011;64924;42.140;24.762;2024-02-21T01:53:16;61.85;;;38.35;;
73869;SDS011;64924;42.140;24.762;2024-02-21T01:55:46;62.28;;;36.70;;
73869;SDS011;64924;42.140;24.762;2024-02-21T01:58:15;61.20;;;37.47;;
73869;SDS011;64924;42.140;24.762;2024-02-21T02:00:45;46.90;;;27.47;;
73869;SDS011;64924;42.140;24.762;2024-02-21T02:03:13;60.33;;;35.30;;
73869;SDS011;64924;42.140;24.762;2024-02-21T02:05:49;63.88;;;37.03;;
73869;SDS011;64924;42.140;24.762;2024-02-21T02:08:15;64.72;;;37.55;;
73869;SDS011;64924;42.140;24.762;2024-02-21T02:10:41;63.63;;;37.35;;
73869;SDS011;64924;42.140;24.762;2024-02-21T02:13:08;67.35;;;38.75;;
73869;SDS011;64924;42.140;24.762;2024-02-21T02:15:49;67.82;;;38.38;;
73869;SDS011;64924;42.140;24.762;2024-02-21T02:18:16;67.30;;;38.15;;
73869;SDS011;64924;42.140;24.762;2024-02-21T02:20:43;62.83;;;39.30;;
73869;SDS011;64924;42.140;24.762;2024-02-21T02:23:11;68.68;;;38.30;;
73869;SDS011;64924;42.140;24.762;2024-02-21T02:25:39;68.97;;;38.25;;
73869;SDS011;64924;42.140;24.762;2024-02-21T02:28:08;69.68;;;38.95;;
73869;SDS011;64924;42.140;24.762;2024-02-21T02:30:33;64.80;;;38.00;;
73869;SDS011;64924;42.140;24.762;2024-02-21T02:33:01;67.30;;;37.67;;
73869;SDS011;64924;42.140;24.762;2024-02-21T02:35:27;71.50;;;40.22;;
73869;SDS011;64924;42.140;24.762;2024-02-21T02:37:53;66.45;;;39.20;;
73869;SDS011;64924;42.140;24.762;2024-02-21T02:40:18;66.15;;;40.17;;
73869;SDS011;64924;42.140;24.762;2024-02-21T02:42:44;72.88;;;39.88;;
73869;SDS011;64924;42.140;24.762;2024-02-21T02:45:10;72.25;;;40.28;;
73869;SDS011;64924;42.140;24.762;2024-02-21T02:47:36;69.35;;;40.38;;
73869;SDS011;64924;42.140;24.762;2024-02-21T02:50:01;77.35;;;42.22;;
73869;SDS011;64924;42.140;24.762;2024-02-21T02:52:27;76.28;;;43.83;;
73869;SDS011;64924;42.140;24.762;2024-02-21T02:54:53;73.85;;;43.22;;
73869;SDS011;64924;42.140;24.762;2024-02-21T02:57:20;81.57;;;42.83;;
73869;SDS011;64924;42.140;24.762;2024-02-21T02:59:49;79.70;;;43.38;;
73869;SDS011;64924;42.140;24.762;2024-02-21T03:02:16;77.88;;;44.60;;
73869;SDS011;64924;42.140;24.762;2024-02-21T03:04:45;76.97;;;42.70;;
73869;SDS011;64924;42.140;24.762;2024-02-21T03:07:11;74.57;;;43.83;;
73869;SDS011;64924;42.140;24.762;2024-02-21T03:09:40;73.30;;;42.00;;
73869;SDS011;64924;42.140;24.762;2024-02-21T03:12:05;73.22;;;42.50;;
73869;SDS011;64924;42.140;24.762;2024-02-21T03:14:32;74.82;;;43.25;;
73869;SDS011;64924;42.140;24.762;2024-02-21T03:16:58;80.47;;;44.38;;
73869;SDS011;64924;42.140;24.762;2024-02-21T03:19:24;75.70;;;42.97;;
73869;SDS011;64924;42.140;24.762;2024-02-21T03:21:50;73.95;;;43.97;;
73869;SDS011;64924;42.140;24.762;2024-02-21T03:24:16;82.22;;;46.00;;
73869;SDS011;64924;42.140;24.762;2024-02-21T03:26:42;79.00;;;45.78;;
73869;SDS011;64924;42.140;24.762;2024-02-21T03:29:07;74.78;;;44.42;;
73869;SDS011;64924;42.140;24.762;2024-02-21T03:31:34;79.30;;;44.38;;
73869;SDS011;64924;42.140;24.762;2024-02-21T03:34:00;78.95;;;44.38;;
73869;SDS011;64924;42.140;24.762;2024-02-21T03:36:25;71.88;;;43.45;;
73869;SDS011;64924;42.140;24.762;2024-02-21T03:38:51;78.93;;;43.95;;
73869;SDS011;64924;42.140;24.762;2024-02-21T03:41:16;70.25;;;40.60;;
73869;SDS011;64924;42.140;24.762;2024-02-21T03:43:42;70.40;;;41.35;;
73869;SDS011;64924;42.140;24.762;2024-02-21T03:46:08;67.97;;;38.42;;
73869;SDS011;64924;42.140;24.762;2024-02-21T03:48:33;68.82;;;41.10;;
73869;SDS011;64924;42.140;24.762;2024-02-21T03:50:59;71.32;;;40.83;;
73869;SDS011;64924;42.140;24.762;2024-02-21T03:53:24;71.30;;;39.78;;
73869;SDS011;64924;42.140;24.762;2024-02-21T03:55:50;75.68;;;41.70;;
73869;SDS011;64924;42.140;24.762;2024-02-21T03:58:15;68.45;;;40.20;;
73869;SDS011;64924;42.140;24.762;2024-02-21T04:00:41;72.30;;;41.33;;
73869;SDS011;64924;42.140;24.762;2024-02-21T04:03:06;70.10;;;40.85;;
73869;SDS011;64924;42.140;24.762;2024-02-21T04:05:32;69.57;;;40.90;;
73869;SDS011;64924;42.140;24.762;2024-02-21T04:07:58;68.18;;;39.65;;
73869;SDS011;64924;42.140;24.762;2024-02-21T04:10:23;70.82;;;41.40;;
73869;SDS011;64924;42.140;24.762;2024-02-21T04:12:49;74.72;;;44.00;;
73869;SDS011;64924;42.140;24.762;2024-02-21T04:15:16;72.30;;;43.45;;
73869;SDS011;64924;42.140;24.762;2024-02-21T04:17:41;68.68;;;42.15;;
73869;SDS011;64924;42.140;24.762;2024-02-21T04:20:13;71.43;;;41.80;;
73869;SDS011;64924;42.140;24.762;2024-02-21T04:22:40;67.78;;;42.28;;
73869;SDS011;64924;42.140;24.762;2024-02-21T04:25:06;75.45;;;42.00;;
73869;SDS011;64924;42.140;24.762;2024-02-21T04:27:32;76.72;;;41.50;;
73869;SDS011;64924;42.140;24.762;2024-02-21T04:29:57;77.30;;;43.28;;
73869;SDS011;64924;42.140;24.762;2024-02-21T04:32:23;81.65;;;45.60;;
73869;SDS011;64924;42.140;24.762;2024-02-21T04:34:48;79.68;;;46.65;;
73869;SDS011;64924;42.140;24.762;2024-02-21T04:37:14;89.18;;;47.08;;
73869;SDS011;64924;42.140;24.762;2024-02-21T04:39:39;83.85;;;46.35;;
73869;SDS011;64924;42.140;24.762;2024-02-21T04:42:05;82.63;;;44.75;;
73869;SDS011;64924;42.140;24.762;2024-02-21T04:44:30;79.40;;;42.03;;
73869;SDS011;64924;42.140;24.762;2024-02-21T04:46:56;87.13;;;46.95;;
73869;SDS011;64924;42.140;24.762;2024-02-21T04:49:22;83.82;;;47.05;;
73869;SDS011;64924;42.140;24.762;2024-02-21T04:51:47;87.05;;;46.05;;
73869;SDS011;64924;42.140;24.762;2024-02-21T04:54:12;89.93;;;48.30;;
73869;SDS011;64924;42.140;24.762;2024-02-21T04:56:38;83.03;;;45.08;;
73869;SDS011;64924;42.140;24.762;2024-02-21T04:59:03;89.32;;;48.03;;
73869;SDS011;64924;42.140;24.762;2024-02-21T05:01:29;86.35;;;46.88;;
73869;SDS011;64924;42.140;24.762;2024-02-21T05:03:54;92.75;;;51.75;;
73869;SDS011;64924;42.140;24.762;2024-02-21T05:06:20;82.72;;;44.35;;
73869;SDS011;64924;42.140;24.762;2024-02-21T05:08:45;88.10;;;45.83;;
73869;SDS011;64924;42.140;24.762;2024-02-21T05:11:11;83.47;;;45.40;;
73869;SDS011;64924;42.140;24.762;2024-02-21T05:13:36;82.47;;;45.92;;
73869;SDS011;64924;42.140;24.762;2024-02-21T05:16:02;90.82;;;49.35;;
73869;SDS011;64924;42.140;24.762;2024-02-21T05:18:28;80.53;;;48.03;;
73869;SDS011;64924;42.140;24.762;2024-02-21T05:20:53;81.82;;;45.45;;
73869;SDS011;64924;42.140;24.762;2024-02-21T05:23:19;81.05;;;46.88;;
73869;SDS011;64924;42.140;24.762;2024-02-21T05:25:44;79.35;;;45.72;;
73869;SDS011;64924;42.140;24.762;2024-02-21T05:28:10;77.15;;;43.92;;
73869;SDS011;64924;42.140;24.762;2024-02-21T05:30:36;70.35;;;42.35;;
73869;SDS011;64924;42.140;24.762;2024-02-21T05:33:05;79.70;;;43.15;;
73869;SDS011;64924;42.140;24.762;2024-02-21T05:35:31;74.88;;;42.70;;
73869;SDS011;64924;42.140;24.762;2024-02-21T05:37:57;79.10;;;41.35;;
73869;SDS011;64924;42.140;24.762;2024-02-21T05:40:22;77.55;;;44.13;;
73869;SDS011;64924;42.140;24.762;2024-02-21T05:42:48;74.75;;;43.78;;
73869;SDS011;64924;42.140;24.762;2024-02-21T05:45:13;81.05;;;44.03;;
73869;SDS011;64924;42.140;24.762;2024-02-21T05:47:40;75.28;;;41.05;;
73869;SDS011;64924;42.140;24.762;2024-02-21T05:50:07;73.53;;;41.25;;
73869;SDS011;64924;42.140;24.762;2024-02-21T05:52:33;73.53;;;39.75;;
73869;SDS011;64924;42.140;24.762;2024-02-21T05:54:59;73.53;;;41.35;;
73869;SDS011;64924;42.140;24.762;2024-02-21T05:57:24;75.72;;;41.70;;
73869;SDS011;64924;42.140;24.762;2024-02-21T05:59:50;73.60;;;41.90;;
73869;SDS011;64924;42.140;24.762;2024-02-21T06:02:15;67.25;;;41.15;;
73869;SDS011;64924;42.140;24.762;2024-02-21T06:04:41;68.18;;;39.20;;
73869;SDS011;64924;42.140;24.762;2024-02-21T06:07:07;67.35;;;40.03;;
73869;SDS011;64924;42.140;24.762;2024-02-21T06:09:33;70.40;;;41.65;;
73869;SDS011;64924;42.140;24.762;2024-02-21T06:11:59;70.75;;;42.22;;
73869;SDS011;64924;42.140;24.762;2024-02-21T06:14:25;68.75;;;40.30;;
73869;SDS011;64924;42.140;24.762;2024-02-21T06:16:51;69.60;;;41.85;;
73869;SDS011;64924;42.140;24.762;2024-02-21T06:19:17;68.53;;;40.53;;
73869;SDS011;64924;42.140;24.762;2024-02-21T06:21:42;69.18;;;41.75;;
73869;SDS011;64924;42.140;24.762;2024-02-21T06:24:08;65.88;;;40.85;;
73869;SDS011;64924;42.140;24.762;2024-02-21T06:26:33;61.72;;;38.35;;
73869;SDS011;64924;42.140;24.762;2024-02-21T06:28:59;66.57;;;39.67;;
73869;SDS011;64924;42.140;24.762;2024-02-21T06:31:27;63.03;;;37.78;;
73869;SDS011;64924;42.140;24.762;2024-02-21T06:33:53;69.07;;;39.42;;
73869;SDS011;64924;42.140;24.762;2024-02-21T06:36:19;70.68;;;40.55;;
73869;SDS011;64924;42.140;24.762;2024-02-21T06:38:44;69.38;;;40.13;;
73869;SDS011;64924;42.140;24.762;2024-02-21T06:41:16;62.53;;;39.97;;
73869;SDS011;64924;42.140;24.762;2024-02-21T06:43:44;64.93;;;38.58;;
73869;SDS011;64924;42.140;24.762;2024-02-21T06:46:10;62.88;;;39.70;;
73869;SDS011;64924;42.140;24.762;2024-02-21T06:48:36;60.90;;;38.70;;
73869;SDS011;64924;42.140;24.762;2024-02-21T06:51:02;60.15;;;38.08;;
73869;SDS011;64924;42.140;24.762;2024-02-21T06:53:28;59.88;;;38.42;;
73869;SDS011;64924;42.140;24.762;2024-02-21T06:55:54;63.53;;;38.33;;
73869;SDS011;64924;42.140;24.762;2024-02-21T06:58:19;57.50;;;36.38;;
73869;SDS011;64924;42.140;24.762;2024-02-21T07:00:45;58.78;;;37.58;;
73869;SDS011;64924;42.140;24.762;2024-02-21T07:03:10;55.83;;;36.88;;
73869;SDS011;64924;42.140;24.762;2024-02-21T07:05:36;52.30;;;33.63;;
73869;SDS011;64924;42.140;24.762;2024-02-21T07:08:01;54.00;;;33.58;;
73869;SDS011;64924;42.140;24.762;2024-02-21T07:10:28;53.13;;;33.53;;
73869;SDS011;64924;42.140;24.762;2024-02-21T07:12:54;50.53;;;32.33;;
73869;SDS011;64924;42.140;24.762;2024-02-21T07:15:20;51.13;;;30.35;;
73869;SDS011;64924;42.140;24.762;2024-02-21T07:17:46;42.42;;;28.45;;
73869;SDS011;64924;42.140;24.762;2024-02-21T07:20:11;43.13;;;28.20;;
73869;SDS011;64924;42.140;24.762;2024-02-21T07:22:37;37.42;;;24.73;;
73869;SDS011;64924;42.140;24.762;2024-02-21T07:25:03;31.15;;;22.27;;
73869;SDS011;64924;42.140;24.762;2024-02-21T07:27:29;33.72;;;21.27;;
73869;SDS011;64924;42.140;24.762;2024-02-21T07:29:56;33.60;;;20.13;;
73869;SDS011;64924;42.140;24.762;2024-02-21T07:32:22;25.85;;;18.50;;
73869;SDS011;64924;42.140;24.762;2024-02-21T07:34:47;28.25;;;18.35;;
73869;SDS011;64924;42.140;24.762;2024-02-21T07:37:13;25.73;;;17.50;;
73869;SDS011;64924;42.140;24.762;2024-02-21T07:39:38;30.42;;;19.15;;
73869;SDS011;64924;42.140;24.762;2024-02-21T07:42:04;26.75;;;18.92;;
73869;SDS011;64924;42.140;24.762;2024-02-21T07:44:30;30.83;;;20.75;;
73869;SDS011;64924;42.140;24.762;2024-02-21T07:46:57;33.60;;;20.33;;
73869;SDS011;64924;42.140;24.762;2024-02-21T07:49:23;31.15;;;20.52;;
73869;SDS011;64924;42.140;24.762;2024-02-21T07:51:48;37.15;;;22.27;;
73869;SDS011;64924;42.140;24.762;2024-02-21T07:54:14;32.25;;;20.77;;
73869;SDS011;64924;42.140;24.762;2024-02-21T07:56:39;35.78;;;20.60;;
73869;SDS011;64924;42.140;24.762;2024-02-21T07:59:05;33.47;;;20.27;;
73869;SDS011;64924;42.140;24.762;2024-02-21T08:01:30;35.20;;;21.65;;
73869;SDS011;64924;42.140;24.762;2024-02-21T08:03:56;34.67;;;22.13;;
73869;SDS011;64924;42.140;24.762;2024-02-21T08:06:21;32.65;;;20.60;;
73869;SDS011;64924;42.140;24.762;2024-02-21T08:08:47;27.85;;;19.70;;
73869;SDS011;64924;42.140;24.762;2024-02-21T08:11:13;26.75;;;18.23;;
73869;SDS011;64924;42.140;24.762;2024-02-21T08:13:38;26.63;;;17.58;;
73869;SDS011;64924;42.140;24.762;2024-02-21T08:16:04;23.80;;;16.73;;
73869;SDS011;64924;42.140;24.762;2024-02-21T08:18:29;23.73;;;18.08;;
73869;SDS011;64924;42.140;24.762;2024-02-21T08:20:55;24.85;;;17.33;;
73869;SDS011;64924;42.140;24.762;2024-02-21T08:23:22;24.88;;;16.48;;
73869;SDS011;64924;42.140;24.762;2024-02-21T08:25:48;24.85;;;17.08;;
73869;SDS011;64924;42.140;24.762;2024-02-21T08:28:14;27.65;;;18.17;;
73869;SDS011;64924;42.140;24.762;2024-02-21T08:30:40;29.73;;;16.83;;
73869;SDS011;64924;42.140;24.762;2024-02-21T08:33:09;23.23;;;16.67;;
73869;SDS011;64924;42.140;24.762;2024-02-21T08:35:34;25.90;;;17.70;;
73869;SDS011;64924;42.140;24.762;2024-02-21T08:38:00;23.15;;;16.60;;
73869;SDS011;64924;42.140;24.762;2024-02-21T08:40:26;20.25;;;13.75;;
73869;SDS011;64924;42.140;24.762;2024-02-21T08:42:51;19.27;;;13.98;;
73869;SDS011;64924;42.140;24.762;2024-02-21T08:45:17;21.85;;;14.82;;
73869;SDS011;64924;42.140;24.762;2024-02-21T08:47:43;20.67;;;14.10;;
73869;SDS011;64924;42.140;24.762;2024-02-21T08:50:09;22.25;;;15.18;;
73869;SDS011;64924;42.140;24.762;2024-02-21T08:52:35;22.27;;;15.27;;
73869;SDS011;64924;42.140;24.762;2024-02-21T08:55:00;23.92;;;14.73;;
73869;SDS011;64924;42.140;24.762;2024-02-21T08:57:26;19.80;;;13.38;;
73869;SDS011;64924;42.140;24.762;2024-02-21T08:59:52;23.15;;;13.93;;
73869;SDS011;64924;42.140;24.762;2024-02-21T09:02:18;20.40;;;13.38;;
73869;SDS011;64924;42.140;24.762;2024-02-21T09:04:43;22.67;;;15.57;;
73869;SDS011;64924;42.140;24.762;2024-02-21T09:07:09;28.13;;;18.48;;
73869;SDS011;64924;42.140;24.762;2024-02-21T09:09:35;17.25;;;13.73;;
73869;SDS011;64924;42.140;24.762;2024-02-21T09:12:01;19.95;;;14.00;;
73869;SDS011;64924;42.140;24.762;2024-02-21T09:14:31;19.55;;;13.32;;
73869;SDS011;64924;42.140;24.762;2024-02-21T09:16:57;20.92;;;12.65;;
73869;SDS011;64924;42.140;24.762;2024-02-21T09:19:22;16.58;;;12.80;;
73869;SDS011;64924;42.140;24.762;2024-02-21T09:21:48;20.23;;;13.02;;
73869;SDS011;64924;42.140;24.762;2024-02-21T09:24:14;16.27;;;12.18;;
73869;SDS011;64924;42.140;24.762;2024-02-21T09:26:39;15.85;;;11.75;;
73869;SDS011;64924;42.140;24.762;2024-02-21T09:29:05;18.08;;;12.52;;
73869;SDS011;64924;42.140;24.762;2024-02-21T09:31:31;16.13;;;12.55;;
73869;SDS011;64924;42.140;24.762;2024-02-21T09:33:56;17.13;;;12.93;;
73869;SDS011;64924;42.140;24.762;2024-02-21T09:36:22;22.00;;;16.67;;
73869;SDS011;64924;42.140;24.762;2024-02-21T09:38:48;19.35;;;14.20;;
73869;SDS011;64924;42.140;24.762;2024-02-21T09:41:18;24.98;;;16.13;;
73869;SDS011;64924;42.140;24.762;2024-02-21T09:43:50;25.42;;;14.48;;
73869;SDS011;64924;42.140;24.762;2024-02-21T09:46:18;19.35;;;12.85;;
73869;SDS011;64924;42.140;24.762;2024-02-21T09:51:36;14.27;;;11.63;;
73869;SDS011;64924;42.140;24.762;2024-02-21T09:54:05;13.23;;;9.55;;
73869;SDS011;64924;42.140;24.762;2024-02-21T09:56:32;12.93;;;9.65;;
73869;SDS011;64924;42.140;24.762;2024-02-21T09:58:58;16.83;;;9.98;;
73869;SDS011;64924;42.140;24.762;2024-02-21T10:01:24;16.45;;;9.80;;
73869;SDS011;64924;42.140;24.762;2024-02-21T10:03:50;14.93;;;9.02;;
73869;SDS011;64924;42.140;24.762;2024-02-21T10:06:16;14.82;;;10.07;;
73869;SDS011;64924;42.140;24.762;2024-02-21T10:08:41;17.85;;;11.45;;
73869;SDS011;64924;42.140;24.762;2024-02-21T10:11:07;12.50;;;9.40;;
73869;SDS011;64924;42.140;24.762;2024-02-21T10:13:34;16.30;;;9.93;;
73869;SDS011;64924;42.140;24.762;2024-02-21T10:16:07;11.77;;;8.68;;
73869;SDS011;64924;42.140;24.762;2024-02-21T10:18:33;12.10;;;10.05;;
73869;SDS011;64924;42.140;24.762;2024-02-21T10:21:02;14.10;;;9.95;;
73869;SDS011;64924;42.140;24.762;2024-02-21T10:23:28;12.02;;;9.35;;
73869;SDS011;64924;42.140;24.762;2024-02-21T10:26:03;13.07;;;9.25;;
73869;SDS011;64924;42.140;24.762;2024-02-21T10:28:30;13.60;;;9.32;;
73869;SDS011;64924;42.140;24.762;2024-02-21T10:30:56;16.42;;;9.55;;
73869;SDS011;64924;42.140;24.762;2024-02-21T10:33:21;13.23;;;9.20;;
73869;SDS011;64924;42.140;24.762;2024-02-21T10:35:49;16.20;;;10.48;;
73869;SDS011;64924;42.140;24.762;2024-02-21T10:38:14;13.63;;;9.23;;
73869;SDS011;64924;42.140;24.762;2024-02-21T10:40:40;10.10;;;7.65;;
73869;SDS011;64924;42.140;24.762;2024-02-21T10:43:05;13.60;;;9.13;;
73869;SDS011;64924;42.140;24.762;2024-02-21T10:45:39;11.30;;;8.50;;
73869;SDS011;64924;42.140;24.762;2024-02-21T10:48:15;11.90;;;8.23;;
73869;SDS011;64924;42.140;24.762;2024-02-21T10:58:46;12.68;;;9.00;;
73869;SDS011;64924;42.140;24.762;2024-02-21T11:01:12;12.68;;;8.82;;
73869;SDS011;64924;42.140;24.762;2024-02-21T11:03:40;13.15;;;8.15;;
73869;SDS011;64924;42.140;24.762;2024-02-21T11:06:09;9.98;;;7.82;;
73869;SDS011;64924;42.140;24.762;2024-02-21T11:08:36;11.75;;;8.35;;
73869;SDS011;64924;42.140;24.762;2024-02-21T11:11:02;12.63;;;9.27;;
73869;SDS011;64924;42.140;24.762;2024-02-21T11:13:37;11.20;;;8.57;;
73869;SDS011;64924;42.140;24.762;2024-02-21T11:16:09;12.02;;;8.02;;
73869;SDS011;64924;42.140;24.762;2024-02-21T11:18:36;11.57;;;8.05;;
73869;SDS011;64924;42.140;24.762;2024-02-21T11:21:02;11.30;;;8.52;;
73869;SDS011;64924;42.140;24.762;2024-02-21T11:23:30;12.60;;;8.05;;
73869;SDS011;64924;42.140;24.762;2024-02-21T11:26:05;13.70;;;8.45;;
73869;SDS011;64924;42.140;24.762;2024-02-21T11:28:35;10.25;;;7.60;;
73869;SDS011;64924;42.140;24.762;2024-02-21T11:31:22;10.47;;;7.93;;
73869;SDS011;64924;42.140;24.762;2024-02-21T11:33:47;12.05;;;7.85;;
73869;SDS011;64924;42.140;24.762;2024-02-21T11:36:23;9.27;;;7.32;;
73869;SDS011;64924;42.140;24.762;2024-02-21T11:38:49;12.05;;;7.75;;
73869;SDS011;64924;42.140;24.762;2024-02-21T11:41:16;13.60;;;8.57;;
73869;SDS011;64924;42.140;24.762;2024-02-21T11:43:41;10.45;;;7.72;;
73869;SDS011;64924;42.140;24.762;2024-02-21T11:46:07;10.15;;;7.28;;
73869;SDS011;64924;42.140;24.762;2024-02-21T11:48:32;9.43;;;7.28;;
73869;SDS011;64924;42.140;24.762;2024-02-21T11:50:58;10.65;;;7.28;;
73869;SDS011;64924;42.140;24.762;2024-02-21T11:53:25;9.10;;;6.78;;
73869;SDS011;64924;42.140;24.762;2024-02-21T11:55:55;9.30;;;7.88;;
73869;SDS011;64924;42.140;24.762;2024-02-21T11:58:21;9.20;;;6.82;;
73869;SDS011;64924;42.140;24.762;2024-02-21T12:00:47;11.27;;;7.20;;
73869;SDS011;64924;42.140;24.762;2024-02-21T12:03:13;10.10;;;6.97;;
73869;SDS011;64924;42.140;24.762;2024-02-21T12:05:41;10.05;;;7.50;;
73869;SDS011;64924;42.140;24.762;2024-02-21T12:08:06;9.48;;;6.93;;
73869;SDS011;64924;42.140;24.762;2024-02-21T12:10:35;8.65;;;6.50;;
73869;SDS011;64924;42.140;24.762;2024-02-21T12:13:07;9.93;;;6.88;;
73869;SDS011;64924;42.140;24.762;2024-02-21T12:15:34;10.52;;;7.45;;
73869;SDS011;64924;42.140;24.762;2024-02-21T12:17:59;9.00;;;6.53;;
73869;SDS011;64924;42.140;24.762;2024-02-21T12:20:25;9.82;;;6.68;;
73869;SDS011;64924;42.140;24.762;2024-02-21T12:22:51;7.78;;;6.22;;
73869;SDS011;64924;42.140;24.762;2024-02-21T12:27:48;9.13;;;6.45;;
73869;SDS011;64924;42.140;24.762;2024-02-21T12:30:17;9.10;;;6.22;;
73869;SDS011;64924;42.140;24.762;2024-02-21T12:32:43;11.13;;;6.75;;
73869;SDS011;64924;42.140;24.762;2024-02-21T12:35:08;11.90;;;7.43;;
73869;SDS011;64924;42.140;24.762;2024-02-21T12:37:34;12.25;;;7.70;;
73869;SDS011;64924;42.140;24.762;2024-02-21T12:40:00;8.98;;;5.93;;
73869;SDS011;64924;42.140;24.762;2024-02-21T12:42:26;7.05;;;5.25;;
73869;SDS011;64924;42.140;24.762;2024-02-21T12:44:52;8.45;;;5.95;;
73869;SDS011;64924;42.140;24.762;2024-02-21T12:47:20;12.57;;;8.50;;
73869;SDS011;64924;42.140;24.762;2024-02-21T12:49:48;8.65;;;6.72;;
73869;SDS011;64924;42.140;24.762;2024-02-21T12:52:14;7.35;;;5.88;;
73869;SDS011;64924;42.140;24.762;2024-02-21T12:54:40;10.38;;;6.15;;
73869;SDS011;64924;42.140;24.762;2024-02-21T12:57:06;7.95;;;5.32;;
73869;SDS011;64924;42.140;24.762;2024-02-21T12:59:31;9.93;;;6.20;;
73869;SDS011;64924;42.140;24.762;2024-02-21T13:01:57;7.65;;;4.97;;
73869;SDS011;64924;42.140;24.762;2024-02-21T13:04:22;7.32;;;5.10;;
73869;SDS011;64924;42.140;24.762;2024-02-21T13:06:48;6.45;;;4.65;;
73869;SDS011;64924;42.140;24.762;2024-02-21T13:09:14;7.20;;;4.35;;
73869;SDS011;64924;42.140;24.762;2024-02-21T13:11:40;6.28;;;4.68;;
73869;SDS011;64924;42.140;24.762;2024-02-21T13:14:06;8.35;;;4.22;;
73869;SDS011;64924;42.140;24.762;2024-02-21T13:16:32;6.63;;;4.75;;
73869;SDS011;64924;42.140;24.762;2024-02-21T13:19:04;7.55;;;4.90;;
73869;SDS011;64924;42.140;24.762;2024-02-21T13:21:35;5.78;;;4.18;;
73869;SDS011;64924;42.140;24.762;2024-02-21T13:24:01;6.13;;;4.47;;
73869;SDS011;64924;42.140;24.762;2024-02-21T13:26:27;7.32;;;4.40;;
73869;SDS011;64924;42.140;24.762;2024-02-21T13:28:52;7.43;;;5.10;;
73869;SDS011;64924;42.140;24.762;2024-02-21T13:31:19;9.88;;;6.15;;
73869;SDS011;64924;42.140;24.762;2024-02-21T13:33:44;7.35;;;4.93;;
73869;SDS011;64924;42.140;24.762;2024-02-21T13:36:10;6.13;;;4.30;;
73869;SDS011;64924;42.140;24.762;2024-02-21T13:38:37;7.28;;;5.10;;
73869;SDS011;64924;42.140;24.762;2024-02-21T13:41:06;6.30;;;4.40;;
73869;SDS011;64924;42.140;24.762;2024-02-21T13:43:32;5.15;;;4.07;;
73869;SDS011;64924;42.140;24.762;2024-02-21T13:45:59;10.80;;;5.35;;
73869;SDS011;64924;42.140;24.762;2024-02-21T13:48:26;5.35;;;4.00;;
73869;SDS011;64924;42.140;24.762;2024-02-21T13:50:52;8.45;;;4.47;;
73869;SDS011;64924;42.140;24.762;2024-02-21T13:53:17;4.82;;;3.42;;
73869;SDS011;64924;42.140;24.762;2024-02-21T13:55:46;6.65;;;4.03;;
73869;SDS011;64924;42.140;24.762;2024-02-21T13:58:12;6.80;;;3.65;;
73869;SDS011;64924;42.140;24.762;2024-02-21T14:00:38;6.10;;;4.80;;
73869;SDS011;64924;42.140;24.762;2024-02-21T14:03:03;5.60;;;4.35;;
73869;SDS011;64924;42.140;24.762;2024-02-21T14:05:29;5.82;;;3.72;;
73869;SDS011;64924;42.140;24.762;2024-02-21T14:07:55;10.52;;;4.45;;
73869;SDS011;64924;42.140;24.762;2024-02-21T14:10:21;7.05;;;4.43;;
73869;SDS011;64924;42.140;24.762;2024-02-21T14:12:47;5.05;;;3.83;;
73869;SDS011;64924;42.140;24.762;2024-02-21T14:15:13;5.65;;;3.45;;
73869;SDS011;64924;42.140;24.762;2024-02-21T14:17:39;4.57;;;3.67;;
73869;SDS011;64924;42.140;24.762;2024-02-21T14:20:06;6.50;;;3.97;;
73869;SDS011;64924;42.140;24.762;2024-02-21T14:22:32;5.40;;;3.28;;